createdAt,value
2023-01-03T00:00:37.422Z,19.30
2023-01-03T00:03:39.204Z,18.80
2023-01-03T00:06:43.434Z,19.50
2023-01-03T00:09:45.576Z,16.10
2023-01-03T00:12:47.115Z,15.50
2023-01-03T00:15:48.653Z,16.90
2023-01-03T00:18:50.132Z,17.80
2023-01-03T00:21:52.003Z,16.90
2023-01-03T00:24:53.860Z,17.60
2023-01-03T00:27:55.498Z,19.90
2023-01-03T00:30:57.033Z,15.70
2023-01-03T00:33:59.086Z,16.80
2023-01-03T00:37:01.051Z,16.30
2023-01-03T00:40:02.731Z,16.10
2023-01-03T00:43:22.889Z,17.80
2023-01-03T00:46:25.120Z,17.90
2023-01-03T00:49:26.947Z,19.50
2023-01-03T00:52:28.626Z,19.10
2023-01-03T00:55:30.195Z,19.00
2023-01-03T00:58:32.321Z,19.30
2023-01-03T01:01:45.873Z,18.70
2023-01-03T01:04:48.651Z,19.60
2023-01-03T01:07:50.363Z,19.20
2023-01-03T01:11:04.404Z,18.60
2023-01-03T01:14:20.043Z,17.10
2023-01-03T01:17:23.074Z,18.00
2023-01-03T01:20:24.840Z,18.20
2023-01-03T01:23:26.392Z,19.60
2023-01-03T01:26:28.045Z,19.30
2023-01-03T01:29:29.648Z,17.90
2023-01-03T01:32:31.506Z,19.00
2023-01-03T01:35:33.995Z,18.30
2023-01-03T01:38:35.969Z,19.90
2023-01-03T01:41:56.985Z,17.80
2023-01-03T01:45:02.826Z,21.00
2023-01-03T01:48:12.237Z,18.60
2023-01-03T01:51:13.895Z,16.70
2023-01-03T01:54:17.020Z,17.60
2023-01-03T01:57:20.274Z,18.30
2023-01-03T02:00:21.945Z,20.50
2023-01-03T02:03:23.604Z,18.00
2023-01-03T02:06:25.238Z,19.30
2023-01-03T02:09:26.897Z,19.00
2023-01-03T02:12:53.582Z,19.20
2023-01-03T02:16:01.329Z,17.30
2023-01-03T02:19:10.988Z,16.20
2023-01-03T02:22:18.614Z,20.10
2023-01-03T02:25:20.129Z,17.00
2023-01-03T02:28:27.782Z,17.60
2023-01-03T02:31:35.619Z,17.30
2023-01-03T02:34:40.019Z,16.20
2023-01-03T02:37:41.572Z,17.40
2023-01-03T02:40:50.207Z,18.60
2023-01-03T02:47:21.466Z,18.10
2023-01-03T02:50:25.395Z,18.50
2023-01-03T02:53:29.423Z,17.60
2023-01-03T02:56:34.599Z,18.40
2023-01-03T02:59:38.659Z,17.90
2023-01-03T03:05:59.905Z,22.10
2023-01-03T03:09:01.539Z,17.90
2023-01-03T03:12:22.659Z,18.40
2023-01-03T03:15:30.741Z,17.70
2023-01-03T03:18:44.524Z,17.50
2023-01-03T03:22:05.458Z,14.10
2023-01-03T03:25:09.655Z,17.30
2023-01-03T03:31:33.642Z,17.30
2023-01-03T03:34:38.317Z,17.00
2023-01-03T03:37:40.953Z,16.90
2023-01-03T03:41:19.890Z,17.90
2023-01-03T03:44:53.280Z,17.20
2023-01-03T03:47:54.883Z,19.30
2023-01-03T03:51:13.924Z,16.70
2023-01-03T03:54:25.506Z,17.90
2023-01-03T03:57:32.571Z,19.70
2023-01-03T04:00:35.975Z,17.10
2023-01-03T04:03:39.439Z,15.80
2023-01-03T04:06:44.612Z,16.30
2023-01-03T04:09:46.211Z,17.50
2023-01-03T04:12:48.563Z,18.00
2023-01-03T04:15:50.123Z,17.50
2023-01-03T04:18:51.709Z,17.10
2023-01-03T04:21:54.045Z,16.90
2023-01-03T04:24:55.583Z,16.90
2023-01-03T04:27:57.115Z,16.30
2023-01-03T04:30:58.768Z,18.10
2023-01-03T04:34:00.421Z,17.70
2023-01-03T04:37:02.042Z,15.40
2023-01-03T04:40:03.748Z,17.40
2023-01-03T04:43:24.145Z,16.30
2023-01-03T04:46:25.992Z,16.00
2023-01-03T04:49:27.692Z,16.20
2023-01-03T04:52:29.744Z,14.90
2023-01-03T04:55:31.326Z,16.50
2023-01-03T04:58:32.914Z,15.30
2023-01-03T05:01:34.670Z,15.30
2023-01-03T05:04:36.486Z,14.50
2023-01-03T05:07:38.236Z,16.40
2023-01-03T05:10:40.349Z,17.00
2023-01-03T05:13:41.953Z,15.20
2023-01-03T05:16:43.636Z,17.90
2023-01-03T05:20:03.770Z,18.60
2023-01-03T05:23:24.183Z,18.10
2023-01-03T05:26:25.903Z,18.80
2023-01-03T05:29:28.159Z,15.80
2023-01-03T05:32:29.706Z,17.90
2023-01-03T05:35:31.282Z,17.00
2023-01-03T05:38:32.860Z,16.50
2023-01-03T05:41:53.231Z,14.50
2023-01-03T05:44:54.747Z,14.80
2023-01-03T05:47:59.163Z,16.80
2023-01-03T05:51:00.872Z,16.10
2023-01-03T05:54:02.603Z,16.20
2023-01-03T05:57:04.307Z,18.20
2023-01-03T06:00:06.244Z,17.50
2023-01-03T06:03:08.992Z,16.60
2023-01-03T06:06:11.025Z,15.90
2023-01-03T06:09:12.772Z,16.40
2023-01-03T06:12:14.506Z,17.80
2023-01-03T06:15:16.052Z,17.50
2023-01-03T06:18:17.610Z,17.30
2023-01-03T06:21:19.572Z,17.20
2023-01-03T06:24:24.637Z,17.20
2023-01-03T06:27:26.251Z,17.10
2023-01-03T06:30:27.853Z,16.40
2023-01-03T06:33:29.434Z,17.70
2023-01-03T06:36:34.051Z,17.00
2023-01-03T06:39:35.981Z,16.00
2023-01-03T06:42:42.539Z,15.10
2023-01-03T06:46:03.836Z,16.20
2023-01-03T06:49:34.223Z,16.30
2023-01-03T06:52:59.032Z,15.60
2023-01-03T06:56:00.644Z,16.40
2023-01-03T06:59:02.218Z,16.50
2023-01-03T07:02:05.608Z,15.40
2023-01-03T07:05:08.575Z,15.00
2023-01-03T07:08:10.239Z,14.90
2023-01-03T07:11:11.859Z,17.60
2023-01-03T07:14:13.462Z,17.90
2023-01-03T07:17:16.626Z,17.50
2023-01-03T07:20:19.077Z,17.70
2023-01-03T07:23:21.057Z,17.80
2023-01-03T07:26:24.432Z,17.00
2023-01-03T07:29:26.037Z,16.20
2023-01-03T07:32:27.611Z,16.10
2023-01-03T07:35:31.587Z,17.30
2023-01-03T07:38:33.215Z,15.60
2023-01-03T07:41:53.677Z,16.50
2023-01-03T07:44:55.811Z,17.90
2023-01-03T07:47:57.319Z,16.60
2023-01-03T07:50:59.245Z,18.60
2023-01-03T07:54:02.466Z,16.80
2023-01-03T07:57:04.078Z,16.50
2023-01-03T08:00:05.874Z,17.70
2023-01-03T08:03:15.829Z,17.00
2023-01-03T08:06:19.611Z,16.30
2023-01-03T08:09:39.839Z,14.90
2023-01-03T08:13:00.148Z,18.80
2023-01-03T08:16:01.778Z,17.10
2023-01-03T08:19:03.483Z,17.90
2023-01-03T08:22:05.077Z,16.90
2023-01-03T08:25:06.802Z,19.00
2023-01-03T08:28:09.395Z,15.30
2023-01-03T08:31:25.676Z,15.30
2023-01-03T08:34:30.067Z,16.30
2023-01-03T08:37:32.076Z,16.70
2023-01-03T08:40:41.471Z,16.10
2023-01-03T08:43:44.599Z,16.60
2023-01-03T08:46:48.433Z,16.40
2023-01-03T08:49:50.146Z,17.10
2023-01-03T08:52:52.051Z,15.80
2023-01-03T08:55:53.634Z,17.50
2023-01-03T08:58:58.409Z,15.00
2023-01-03T09:02:00.902Z,16.20
2023-01-03T09:05:02.744Z,15.90
2023-01-03T09:08:04.341Z,15.80
2023-01-03T09:11:06.712Z,17.00
2023-01-03T09:14:08.335Z,16.30
2023-01-03T09:17:09.882Z,17.40
2023-01-03T09:20:12.406Z,16.90
2023-01-03T09:23:13.987Z,16.00
2023-01-03T09:26:15.585Z,17.10
2023-01-03T09:29:17.231Z,16.90
2023-01-03T09:32:18.831Z,17.40
2023-01-03T09:35:20.548Z,18.30
2023-01-03T09:38:23.316Z,16.10
2023-01-03T09:41:26.037Z,17.70
2023-01-03T09:44:27.499Z,17.70
2023-01-03T09:47:31.864Z,18.00
2023-01-03T09:50:57.259Z,17.70
2023-01-03T09:54:16.981Z,16.60
2023-01-03T09:57:42.916Z,16.50
2023-01-03T10:01:06.706Z,19.50
2023-01-03T10:04:21.626Z,17.20
2023-01-03T10:07:32.966Z,19.20
2023-01-03T10:10:43.559Z,18.30
2023-01-03T10:13:50.899Z,17.30
2023-01-03T10:16:55.406Z,18.20
2023-01-03T10:20:16.321Z,17.90
2023-01-03T10:23:18.487Z,17.00
2023-01-03T10:26:20.493Z,17.60
2023-01-03T10:29:22.228Z,18.10
2023-01-03T10:32:42.512Z,18.00
2023-01-03T10:35:44.175Z,19.80
2023-01-03T10:38:52.502Z,17.60
2023-01-03T10:41:57.414Z,17.80
2023-01-03T10:48:01.780Z,19.30
2023-01-03T10:51:26.573Z,18.60
2023-01-03T10:54:37.132Z,20.10
2023-01-03T10:58:05.079Z,19.70
2023-01-03T11:01:11.748Z,18.80
2023-01-03T11:04:15.599Z,18.50
2023-01-03T11:07:17.968Z,18.50
2023-01-03T11:10:19.740Z,18.40
2023-01-03T11:13:26.079Z,19.10
2023-01-03T11:16:32.158Z,18.30
2023-01-03T11:19:34.199Z,17.50
2023-01-03T11:22:42.419Z,16.60
2023-01-03T11:25:44.001Z,17.40
2023-01-03T11:29:05.047Z,17.80
2023-01-03T11:32:25.836Z,16.20
2023-01-03T11:35:43.463Z,18.90
2023-01-03T11:38:57.937Z,17.20
2023-01-03T11:42:11.479Z,18.10
2023-01-03T11:45:32.180Z,18.20
2023-01-03T11:48:42.736Z,19.40
2023-01-03T11:51:56.739Z,16.80
2023-01-03T11:54:58.443Z,17.60
2023-01-03T11:58:02.404Z,20.40
2023-01-03T12:01:13.401Z,19.20
2023-01-03T12:04:15.138Z,17.70
2023-01-03T12:10:58.046Z,19.10
2023-01-03T12:14:04.001Z,19.60
2023-01-03T12:17:15.478Z,20.10
2023-01-03T12:20:17.151Z,19.60
2023-01-03T12:23:27.972Z,22.50
2023-01-03T12:26:30.554Z,19.60
2023-01-03T12:29:43.682Z,19.60
2023-01-03T12:32:53.901Z,19.10
2023-01-03T12:36:01.613Z,19.00
2023-01-03T12:39:33.607Z,18.20
2023-01-03T12:42:38.142Z,17.00
2023-01-03T12:45:55.124Z,19.10
2023-01-03T12:49:01.551Z,20.10
2023-01-03T12:52:03.458Z,19.00
2023-01-03T12:55:20.615Z,20.50
2023-01-03T12:58:22.167Z,17.70
2023-01-03T13:01:36.856Z,18.40
2023-01-03T13:04:41.539Z,17.00
2023-01-03T13:07:47.701Z,17.10
2023-01-03T13:10:52.117Z,17.90
2023-01-03T13:13:59.544Z,16.60
2023-01-03T13:17:07.082Z,16.50
2023-01-03T13:20:14.860Z,16.00
2023-01-03T13:23:35.275Z,16.80
2023-01-03T13:26:36.865Z,17.80
2023-01-03T13:29:42.227Z,16.40
2023-01-03T13:33:02.683Z,17.50
2023-01-03T13:36:04.262Z,17.00
2023-01-03T13:39:25.791Z,16.90
2023-01-03T13:42:46.404Z,19.00
2023-01-03T13:45:48.392Z,18.20
2023-01-03T13:48:54.744Z,17.90
2023-01-03T13:51:57.388Z,18.30
2023-01-03T13:54:59.197Z,18.60
2023-01-03T13:58:01.147Z,16.60
2023-01-03T14:01:06.007Z,17.20
2023-01-03T14:04:26.889Z,17.50
2023-01-03T14:07:43.664Z,17.00
2023-01-03T14:10:48.027Z,17.60
2023-01-03T14:14:09.959Z,17.10
2023-01-03T14:17:19.404Z,18.20
2023-01-03T14:20:23.212Z,17.00
2023-01-03T14:26:48.703Z,17.70
2023-01-03T14:29:52.486Z,17.10
2023-01-03T14:32:54.324Z,18.40
2023-01-03T14:36:06.742Z,18.90
2023-01-03T14:39:20.107Z,17.90
2023-01-03T14:42:21.893Z,17.80
2023-01-03T14:45:23.611Z,17.80
2023-01-03T14:48:25.282Z,17.60
2023-01-03T14:51:27.048Z,17.00
2023-01-03T14:54:29.205Z,18.70
2023-01-03T14:57:30.770Z,17.50
2023-01-03T15:00:34.813Z,17.40
2023-01-03T15:03:38.351Z,18.70
2023-01-03T15:07:01.393Z,18.60
2023-01-03T15:10:07.807Z,17.10
2023-01-03T15:13:29.626Z,16.00
2023-01-03T15:16:37.417Z,16.80
2023-01-03T15:19:40.623Z,17.70
2023-01-03T15:22:42.592Z,16.10
2023-01-03T15:25:44.243Z,18.50
2023-01-03T15:28:50.263Z,18.80
2023-01-03T15:31:51.965Z,16.60
2023-01-03T15:34:53.836Z,17.40
2023-01-03T15:37:55.851Z,17.30
2023-01-03T15:40:57.796Z,16.70
2023-01-03T15:44:00.255Z,18.10
2023-01-03T15:47:03.241Z,18.10
2023-01-03T15:50:06.969Z,17.90
2023-01-03T15:53:17.038Z,19.10
2023-01-03T15:56:20.105Z,17.40
2023-01-03T15:59:24.891Z,17.40
2023-01-03T16:02:26.977Z,17.70
2023-01-03T16:05:28.762Z,17.00
2023-01-03T16:08:32.521Z,16.90
2023-01-03T16:11:34.822Z,18.90
2023-01-03T16:14:38.453Z,16.20
2023-01-03T16:17:40.211Z,17.30
2023-01-03T16:20:41.893Z,18.70
2023-01-03T16:23:43.739Z,17.40
2023-01-03T16:26:45.947Z,18.60
2023-01-03T16:29:47.771Z,17.40
2023-01-03T16:32:49.843Z,17.60
2023-01-03T16:35:51.924Z,17.30
2023-01-03T16:38:53.466Z,18.80
2023-01-03T16:42:13.760Z,18.30
2023-01-03T16:45:16.401Z,17.20
2023-01-03T16:48:19.704Z,18.50
2023-01-03T16:51:24.572Z,17.70
2023-01-03T16:54:26.132Z,18.30
2023-01-03T16:57:28.652Z,17.80
2023-01-03T17:00:31.324Z,19.30
2023-01-03T17:03:38.036Z,19.90
2023-01-03T17:06:44.140Z,18.90
2023-01-03T17:09:46.926Z,19.40
2023-01-03T17:12:48.685Z,19.30
2023-01-03T17:15:50.345Z,18.70
2023-01-03T17:18:53.592Z,19.20
2023-01-03T17:21:55.517Z,20.70
2023-01-03T17:24:57.065Z,18.90
2023-01-03T17:27:59.543Z,20.40
2023-01-03T17:31:01.186Z,19.90
2023-01-03T17:34:12.366Z,19.90
2023-01-03T17:37:18.555Z,19.30
2023-01-03T17:40:31.056Z,18.40
2023-01-03T17:43:35.189Z,16.20
2023-01-03T17:46:55.404Z,18.40
2023-01-03T17:49:56.988Z,19.00
2023-01-03T17:53:00.453Z,19.30
2023-01-03T17:56:02.182Z,20.80
2023-01-03T17:59:04.980Z,18.00
2023-01-03T18:02:18.129Z,17.50
2023-01-03T18:05:27.122Z,18.70
2023-01-03T18:08:29.726Z,17.40
2023-01-03T18:11:31.587Z,20.40
2023-01-03T18:14:33.145Z,19.90
2023-01-03T18:17:34.807Z,19.00
2023-01-03T18:20:36.359Z,19.70
2023-01-03T18:23:38.646Z,17.90
2023-01-03T18:26:42.438Z,18.10
2023-01-03T18:29:44.105Z,17.40
2023-01-03T18:32:45.766Z,17.90
2023-01-03T18:35:47.732Z,27.80
2023-01-03T18:38:49.504Z,25.00
2023-01-03T18:41:51.158Z,20.70
2023-01-03T18:44:55.069Z,20.70
2023-01-03T18:47:56.822Z,19.00
2023-01-03T18:50:59.919Z,19.10
2023-01-03T18:54:01.883Z,20.50
2023-01-03T18:57:03.754Z,18.80
2023-01-03T19:00:07.806Z,19.70
2023-01-03T19:06:17.119Z,18.20
2023-01-03T19:09:26.049Z,19.90
2023-01-03T19:12:27.828Z,18.60
2023-01-03T19:15:30.262Z,18.30
2023-01-03T19:18:32.057Z,18.00
2023-01-03T19:21:35.890Z,17.50
2023-01-03T19:24:39.437Z,18.80
2023-01-03T19:27:45.631Z,19.50
2023-01-03T19:30:47.434Z,18.40
2023-01-03T19:33:49.159Z,19.50
2023-01-03T19:36:51.334Z,18.10
2023-01-03T19:39:53.087Z,17.80
2023-01-03T19:42:55.922Z,20.00
2023-01-03T19:45:57.585Z,18.60
2023-01-03T19:48:59.177Z,16.60
2023-01-03T19:52:00.864Z,18.60
2023-01-03T19:55:02.520Z,18.30
2023-01-03T19:58:05.791Z,19.50
2023-01-03T20:01:09.353Z,17.30
2023-01-03T20:04:11.577Z,16.10
2023-01-03T20:07:14.104Z,16.40
2023-01-03T20:10:17.057Z,16.40
2023-01-03T20:13:23.550Z,17.60
2023-01-03T20:16:25.312Z,17.70
2023-01-03T20:19:27.975Z,16.10
2023-01-03T20:23:03.331Z,21.00
2023-01-03T20:25:51.875Z,21.10
2023-01-03T20:28:54.714Z,20.60
2023-01-03T20:31:57.371Z,20.20
2023-01-03T20:35:11.936Z,18.60
2023-01-03T20:38:27.552Z,18.00
2023-01-03T20:41:38.161Z,19.60
2023-01-03T20:44:40.647Z,19.00
2023-01-03T20:47:43.940Z,21.70
2023-01-03T20:50:45.473Z,19.60
2023-01-03T20:53:53.950Z,21.10
2023-01-03T20:56:56.291Z,17.80
2023-01-03T20:59:57.857Z,18.00
2023-01-03T21:02:59.621Z,17.30
2023-01-03T21:06:02.076Z,19.30
2023-01-03T21:09:03.749Z,16.60
2023-01-03T21:12:05.411Z,17.60
2023-01-03T21:15:07.269Z,18.00
2023-01-03T21:18:10.264Z,16.50
2023-01-03T21:21:17.912Z,14.10
2023-01-03T21:24:21.158Z,13.70
2023-01-03T21:27:22.715Z,12.40
2023-01-03T21:30:24.757Z,11.70
2023-01-03T21:33:26.293Z,13.20
2023-01-03T21:36:29.261Z,12.90
2023-01-03T21:39:30.894Z,11.90
2023-01-03T21:42:51.262Z,12.50
2023-01-03T21:45:56.396Z,13.80
2023-01-03T21:48:58.305Z,13.30
2023-01-03T21:52:00.064Z,11.00
2023-01-03T21:55:02.437Z,13.40
2023-01-03T21:58:04.092Z,12.00
2023-01-03T22:01:10.297Z,9.30
2023-01-03T22:04:17.966Z,9.20
2023-01-03T22:07:19.514Z,11.90
2023-01-03T22:10:21.242Z,16.00
2023-01-03T22:13:22.861Z,16.30
2023-01-03T22:16:25.024Z,14.30
2023-01-03T22:19:26.766Z,13.20
2023-01-03T22:22:28.326Z,13.20
2023-01-03T22:25:29.880Z,13.40
2023-01-03T22:28:39.376Z,12.20
2023-01-03T22:31:41.115Z,12.80
2023-01-03T22:34:42.707Z,14.70
2023-01-03T22:37:44.509Z,15.00
2023-01-03T22:40:46.062Z,12.80
2023-01-03T22:43:47.730Z,13.40
2023-01-03T22:46:49.384Z,12.00
2023-01-03T22:49:51.350Z,13.10
2023-01-03T22:52:54.111Z,15.70
2023-01-03T22:55:55.792Z,15.50
2023-01-03T22:58:57.453Z,14.80
2023-01-03T23:01:59.792Z,14.70
2023-01-03T23:05:01.413Z,16.30
2023-01-03T23:08:03.043Z,15.00
2023-01-03T23:11:33.209Z,15.40
2023-01-03T23:14:35.731Z,13.30
2023-01-03T23:17:56.164Z,14.80
2023-01-03T23:21:03.490Z,16.60
2023-01-03T23:24:05.411Z,15.50
2023-01-03T23:27:06.932Z,16.60
2023-01-03T23:30:09.028Z,16.10
2023-01-03T23:33:10.695Z,14.90
2023-01-03T23:36:13.583Z,14.10
2023-01-03T23:39:16.987Z,14.50
2023-01-03T23:42:18.644Z,15.40
2023-01-03T23:45:20.814Z,15.40
2023-01-03T23:48:22.577Z,14.30
2023-01-03T23:51:24.447Z,15.10
2023-01-03T23:54:26.004Z,15.70
2023-01-03T23:57:27.660Z,15.80
